sensor_id;sensor_type;location;lat;lon;timestamp;pressure;altitude;pressure_sealevel;temperature;humidity
4767;BME280;2397;53.576;9.746;2023-12-04T00:01:50;101875.19;;;-0.46;100.00
4767;BME280;2397;53.576;9.746;2023-12-04T00:04:17;101885.44;;;-0.43;100.00
4767;BME280;2397;53.576;9.746;2023-12-04T00:06:43;101887.13;;;-0.42;100.00
4767;BME280;2397;53.576;9.746;2023-12-04T00:09:11;101883.00;;;-0.48;100.00
4767;BME280;2397;53.576;9.746;2023-12-04T00:11:38;101879.34;;;-0.42;100.00
4767;BME280;2397;53.576;9.746;2023-12-04T00:14:05;101884.75;;;-0.48;100.00
4767;BME280;2397;53.576;9.746;2023-12-04T00:16:34;101875.72;;;-0.61;100.00
4767;BME280;2397;53.576;9.746;2023-12-04T00:19:01;101872.22;;;-0.60;100.00
4767;BME280;2397;53.576;9.746;2023-12-04T00:21:28;101861.69;;;-0.56;100.00
4767;BME280;2397;53.576;9.746;2023-12-04T00:23:55;101863.53;;;-0.59;100.00
4767;BME280;2397;53.576;9.746;2023-12-04T00:26:22;101860.94;;;-0.59;100.00
4767;BME280;2397;53.576;9.746;2023-12-04T00:28:48;101857.00;;;-0.69;100.00
4767;BME280;2397;53.576;9.746;2023-12-04T00:31:15;101857.50;;;-0.60;100.00
4767;BME280;2397;53.576;9.746;2023-12-04T00:33:41;101858.69;;;-0.68;100.00
4767;BME280;2397;53.576;9.746;2023-12-04T00:36:09;101862.44;;;-0.77;100.00
4767;BME280;2397;53.576;9.746;2023-12-04T00:38:35;101856.50;;;-0.80;100.00
4767;BME280;2397;53.576;9.746;2023-12-04T00:41:02;101861.59;;;-0.77;100.00
4767;BME280;2397;53.576;9.746;2023-12-04T00:43:29;101860.78;;;-0.79;100.00
4767;BME280;2397;53.576;9.746;2023-12-04T00:45:56;101853.06;;;-0.81;100.00
4767;BME280;2397;53.576;9.746;2023-12-04T00:48:23;101854.13;;;-0.86;100.00
4767;BME280;2397;53.576;9.746;2023-12-04T00:50:51;101845.44;;;-0.85;100.00
4767;BME280;2397;53.576;9.746;2023-12-04T00:53:17;101850.53;;;-0.82;100.00
4767;BME280;2397;53.576;9.746;2023-12-04T00:55:44;101853.38;;;-0.90;100.00
4767;BME280;2397;53.576;9.746;2023-12-04T00:58:10;101852.47;;;-0.89;100.00
4767;BME280;2397;53.576;9.746;2023-12-04T01:00:37;101846.78;;;-0.98;100.00
4767;BME280;2397;53.576;9.746;2023-12-04T01:03:04;101837.41;;;-1.02;100.00
4767;BME280;2397;53.576;9.746;2023-12-04T01:05:30;101839.16;;;-1.03;100.00
4767;BME280;2397;53.576;9.746;2023-12-04T01:07:57;101837.50;;;-1.05;100.00
4767;BME280;2397;53.576;9.746;2023-12-04T01:10:23;101835.78;;;-1.05;100.00
4767;BME280;2397;53.576;9.746;2023-12-04T01:12:50;101827.06;;;-1.02;100.00
4767;BME280;2397;53.576;9.746;2023-12-04T01:15:17;101823.66;;;-1.04;100.00
4767;BME280;2397;53.576;9.746;2023-12-04T01:17:44;101821.00;;;-1.03;100.00
4767;BME280;2397;53.576;9.746;2023-12-04T01:20:11;101818.69;;;-1.10;100.00
4767;BME280;2397;53.576;9.746;2023-12-04T01:22:37;101810.88;;;-1.09;100.00
4767;BME280;2397;53.576;9.746;2023-12-04T01:25:04;101821.25;;;-1.09;100.00
4767;BME280;2397;53.576;9.746;2023-12-04T01:27:31;101816.06;;;-1.09;100.00
4767;BME280;2397;53.576;9.746;2023-12-04T01:29:58;101814.34;;;-1.10;100.00
4767;BME280;2397;53.576;9.746;2023-12-04T01:32:24;101807.63;;;-1.15;100.00
4767;BME280;2397;53.576;9.746;2023-12-04T01:34:52;101811.06;;;-1.15;100.00
4767;BME280;2397;53.576;9.746;2023-12-04T01:37:19;101816.50;;;-1.22;100.00
4767;BME280;2397;53.576;9.746;2023-12-04T01:39:45;101810.63;;;-1.27;100.00
4767;BME280;2397;53.576;9.746;2023-12-04T01:42:12;101815.72;;;-1.24;100.00
4767;BME280;2397;53.576;9.746;2023-12-04T01:44:38;101805.59;;;-1.32;100.00
4767;BME280;2397;53.576;9.746;2023-12-04T01:47:05;101797.59;;;-1.24;100.00
4767;BME280;2397;53.576;9.746;2023-12-04T01:49:33;101801.22;;;-1.30;100.00
4767;BME280;2397;53.576;9.746;2023-12-04T01:52:01;101798.81;;;-1.36;100.00
4767;BME280;2397;53.576;9.746;2023-12-04T01:54:28;101793.78;;;-1.40;100.00
4767;BME280;2397;53.576;9.746;2023-12-04T01:56:55;101786.94;;;-1.41;100.00
4767;BME280;2397;53.576;9.746;2023-12-04T01:59:22;101783.38;;;-1.39;100.00
4767;BME280;2397;53.576;9.746;2023-12-04T02:01:51;101780.84;;;-1.40;100.00
4767;BME280;2397;53.576;9.746;2023-12-04T02:04:18;101781.75;;;-1.41;100.00
4767;BME280;2397;53.576;9.746;2023-12-04T02:06:45;101782.69;;;-1.44;100.00
4767;BME280;2397;53.576;9.746;2023-12-04T02:09:12;101785.94;;;-1.37;100.00
4767;BME280;2397;53.576;9.746;2023-12-04T02:11:40;101780.06;;;-1.42;100.00
4767;BME280;2397;53.576;9.746;2023-12-04T02:14:07;101778.44;;;-1.45;100.00
4767;BME280;2397;53.576;9.746;2023-12-04T02:16:39;101776.72;;;-1.46;100.00
4767;BME280;2397;53.576;9.746;2023-12-04T02:19:12;101778.56;;;-1.49;100.00
4767;BME280;2397;53.576;9.746;2023-12-04T02:21:39;101769.06;;;-1.49;100.00
4767;BME280;2397;53.576;9.746;2023-12-04T02:24:05;101765.47;;;-1.45;100.00
4767;BME280;2397;53.576;9.746;2023-12-04T02:26:34;101761.34;;;-1.50;100.00
4767;BME280;2397;53.576;9.746;2023-12-04T02:29:08;101757.22;;;-1.56;100.00
4767;BME280;2397;53.576;9.746;2023-12-04T02:31:39;101756.13;;;-1.49;100.00
4767;BME280;2397;53.576;9.746;2023-12-04T02:34:07;101752.69;;;-1.49;100.00
4767;BME280;2397;53.576;9.746;2023-12-04T02:36:35;101743.91;;;-1.45;100.00
4767;BME280;2397;53.576;9.746;2023-12-04T02:39:04;101741.38;;;-1.47;100.00
4767;BME280;2397;53.576;9.746;2023-12-04T02:41:31;101733.78;;;-1.51;100.00
4767;BME280;2397;53.576;9.746;2023-12-04T02:43:57;101726.94;;;-1.54;100.00
4767;BME280;2397;53.576;9.746;2023-12-04T02:46:25;101734.56;;;-1.49;100.00
4767;BME280;2397;53.576;9.746;2023-12-04T02:48:51;101726.25;;;-1.59;100.00
4767;BME280;2397;53.576;9.746;2023-12-04T02:51:18;101717.53;;;-1.56;100.00
4767;BME280;2397;53.576;9.746;2023-12-04T02:53:44;101722.63;;;-1.53;100.00
4767;BME280;2397;53.576;9.746;2023-12-04T02:56:11;101715.03;;;-1.59;100.00
4767;BME280;2397;53.576;9.746;2023-12-04T02:58:38;101715.03;;;-1.59;100.00
4767;BME280;2397;53.576;9.746;2023-12-04T03:01:04;101716.50;;;-1.51;100.00
4767;BME280;2397;53.576;9.746;2023-12-04T03:03:31;101706.91;;;-1.47;100.00
4767;BME280;2397;53.576;9.746;2023-12-04T03:05:58;101701.72;;;-1.47;100.00
4767;BME280;2397;53.576;9.746;2023-12-04T03:08:25;101707.81;;;-1.50;100.00
4767;BME280;2397;53.576;9.746;2023-12-04T03:10:51;101701.75;;;-1.49;100.00
4767;BME280;2397;53.576;9.746;2023-12-04T03:13:18;101688.69;;;-1.46;100.00
4767;BME280;2397;53.576;9.746;2023-12-04T03:15:44;101683.41;;;-1.43;100.00
4767;BME280;2397;53.576;9.746;2023-12-04T03:18:11;101682.63;;;-1.45;100.00
4767;BME280;2397;53.576;9.746;2023-12-04T03:20:38;101681.88;;;-1.48;100.00
4767;BME280;2397;53.576;9.746;2023-12-04T03:23:05;101669.66;;;-1.43;100.00
4767;BME280;2397;53.576;9.746;2023-12-04T03:25:31;101672.19;;;-1.42;100.00
4767;BME280;2397;53.576;9.746;2023-12-04T03:27:58;101669.50;;;-1.40;100.00
4767;BME280;2397;53.576;9.746;2023-12-04T03:30:25;101669.38;;;-1.36;100.00
4767;BME280;2397;53.576;9.746;2023-12-04T03:32:51;101660.63;;;-1.33;100.00
4767;BME280;2397;53.576;9.746;2023-12-04T03:35:18;101672.19;;;-1.42;100.00
4767;BME280;2397;53.576;9.746;2023-12-04T03:37:44;101660.88;;;-1.39;100.00
4767;BME280;2397;53.576;9.746;2023-12-04T03:40:11;101655.78;;;-1.42;100.00
4767;BME280;2397;53.576;9.746;2023-12-04T03:42:38;101655.03;;;-1.46;100.00
4767;BME280;2397;53.576;9.746;2023-12-04T03:45:05;101648.13;;;-1.45;100.00
4767;BME280;2397;53.576;9.746;2023-12-04T03:47:32;101648.94;;;-1.43;100.00
4767;BME280;2397;53.576;9.746;2023-12-04T03:49:59;101643.63;;;-1.40;100.00
4767;BME280;2397;53.576;9.746;2023-12-04T03:52:25;101631.50;;;-1.38;100.00
4767;BME280;2397;53.576;9.746;2023-12-04T03:54:53;101626.94;;;-1.32;100.00
4767;BME280;2397;53.576;9.746;2023-12-04T03:57:19;101627.69;;;-1.28;100.00
4767;BME280;2397;53.576;9.746;2023-12-04T03:59:46;101622.16;;;-1.42;100.00
4767;BME280;2397;53.576;9.746;2023-12-04T04:02:12;101613.72;;;-1.47;100.00
4767;BME280;2397;53.576;9.746;2023-12-04T04:04:39;101612.47;;;-1.37;100.00
4767;BME280;2397;53.576;9.746;2023-12-04T04:07:06;101606.22;;;-1.32;100.00
4767;BME280;2397;53.576;9.746;2023-12-04T04:09:32;101603.56;;;-1.30;100.00
4767;BME280;2397;53.576;9.746;2023-12-04T04:11:59;101603.56;;;-1.30;100.00
4767;BME280;2397;53.576;9.746;2023-12-04T04:14:26;101608.75;;;-1.30;100.00
4767;BME280;2397;53.576;9.746;2023-12-04T04:16:53;101602.63;;;-1.28;100.00
4767;BME280;2397;53.576;9.746;2023-12-04T04:19:19;101594.56;;;-1.20;100.00
4767;BME280;2397;53.576;9.746;2023-12-04T04:21:46;101598.06;;;-1.21;100.00
4767;BME280;2397;53.576;9.746;2023-12-04T04:24:12;101592.03;;;-1.22;100.00
4767;BME280;2397;53.576;9.746;2023-12-04T04:26:39;101590.97;;;-1.16;100.00
4767;BME280;2397;53.576;9.746;2023-12-04T04:29:06;101593.41;;;-1.12;100.00
4767;BME280;2397;53.576;9.746;2023-12-04T04:31:32;101595.78;;;-1.07;100.00
4767;BME280;2397;53.576;9.746;2023-12-04T04:33:59;101593.16;;;-1.06;100.00
4767;BME280;2397;53.576;9.746;2023-12-04T04:36:26;101595.09;;;-1.11;100.00
4767;BME280;2397;53.576;9.746;2023-12-04T04:38:53;101589.94;;;-1.12;100.00
4767;BME280;2397;53.576;9.746;2023-12-04T04:41:19;101591.31;;;-1.02;100.00
4767;BME280;2397;53.576;9.746;2023-12-04T04:43:46;101585.56;;;-1.10;100.00
4767;BME280;2397;53.576;9.746;2023-12-04T04:46:13;101586.69;;;-1.17;100.00
4767;BME280;2397;53.576;9.746;2023-12-04T04:48:40;101583.88;;;-1.11;100.00
4767;BME280;2397;53.576;9.746;2023-12-04T04:51:07;101587.25;;;-1.09;100.00
4767;BME280;2397;53.576;9.746;2023-12-04T04:53:33;101570.34;;;-1.19;100.00
4767;BME280;2397;53.576;9.746;2023-12-04T04:56:00;101571.06;;;-1.14;100.00
4767;BME280;2397;53.576;9.746;2023-12-04T04:58:27;101577.13;;;-1.15;100.00
4767;BME280;2397;53.576;9.746;2023-12-04T05:00:53;101569.59;;;-1.21;100.00
4767;BME280;2397;53.576;9.746;2023-12-04T05:03:20;101571.09;;;-1.16;100.00
4767;BME280;2397;53.576;9.746;2023-12-04T05:05:49;101565.63;;;-1.08;100.00
4767;BME280;2397;53.576;9.746;2023-12-04T05:08:15;101561.25;;;-1.06;100.00
4767;BME280;2397;53.576;9.746;2023-12-04T05:10:42;101562.13;;;-1.07;100.00
4767;BME280;2397;53.576;9.746;2023-12-04T05:13:09;101558.53;;;-1.03;100.00
4767;BME280;2397;53.576;9.746;2023-12-04T05:15:36;101556.25;;;-0.89;100.00
4767;BME280;2397;53.576;9.746;2023-12-04T05:18:02;101554.34;;;-0.84;100.00
4767;BME280;2397;53.576;9.746;2023-12-04T05:20:29;101552.19;;;-0.96;100.00
4767;BME280;2397;53.576;9.746;2023-12-04T05:22:59;101548.66;;;-0.94;100.00
4767;BME280;2397;53.576;9.746;2023-12-04T05:25:25;101543.66;;;-0.98;100.00
4767;BME280;2397;53.576;9.746;2023-12-04T05:27:59;101539.44;;;-1.01;100.00
4767;BME280;2397;53.576;9.746;2023-12-04T05:30:26;101537.56;;;-0.97;100.00
4767;BME280;2397;53.576;9.746;2023-12-04T05:32:53;101530.88;;;-1.03;100.00
4767;BME280;2397;53.576;9.746;2023-12-04T05:35:21;101530.66;;;-0.97;100.00
4767;BME280;2397;53.576;9.746;2023-12-04T05:37:47;101529.44;;;-0.88;100.00
4767;BME280;2397;53.576;9.746;2023-12-04T05:40:14;101533.06;;;-0.92;100.00
4767;BME280;2397;53.576;9.746;2023-12-04T05:42:41;101529.56;;;-0.91;100.00
4767;BME280;2397;53.576;9.746;2023-12-04T05:45:08;101529.56;;;-0.91;100.00
4767;BME280;2397;53.576;9.746;2023-12-04T05:47:35;101526.28;;;-0.96;100.00
4767;BME280;2397;53.576;9.746;2023-12-04T05:50:01;101534.22;;;-0.99;100.00
4767;BME280;2397;53.576;9.746;2023-12-04T05:52:28;101526.66;;;-1.05;100.00
4767;BME280;2397;53.576;9.746;2023-12-04T05:54:55;101520.56;;;-1.04;100.00
4767;BME280;2397;53.576;9.746;2023-12-04T05:57:21;101517.44;;;-1.12;100.00
4767;BME280;2397;53.576;9.746;2023-12-04T05:59:48;101517.22;;;-1.06;100.00
4767;BME280;2397;53.576;9.746;2023-12-04T06:02:15;101508.59;;;-1.07;100.00
4767;BME280;2397;53.576;9.746;2023-12-04T06:04:42;101511.22;;;-1.08;100.00
4767;BME280;2397;53.576;9.746;2023-12-04T06:07:09;101508.59;;;-1.07;100.00
4767;BME280;2397;53.576;9.746;2023-12-04T06:09:35;101503.22;;;-1.02;100.00
4767;BME280;2397;53.576;9.746;2023-12-04T06:12:05;101506.06;;;-1.08;100.00
4767;BME280;2397;53.576;9.746;2023-12-04T06:14:35;101495.94;;;-1.14;100.00
4767;BME280;2397;53.576;9.746;2023-12-04T06:17:01;101500.38;;;-1.18;100.00
4767;BME280;2397;53.576;9.746;2023-12-04T06:19:28;101490.88;;;-1.17;100.00
4767;BME280;2397;53.576;9.746;2023-12-04T06:21:58;101495.75;;;-1.10;100.00
4767;BME280;2397;53.576;9.746;2023-12-04T06:24:25;101488.94;;;-1.12;100.00
4767;BME280;2397;53.576;9.746;2023-12-04T06:26:52;101489.84;;;-1.13;100.00
4767;BME280;2397;53.576;9.746;2023-12-04T06:29:19;101493.91;;;-1.06;100.00
4767;BME280;2397;53.576;9.746;2023-12-04T06:31:46;101497.25;;;-1.04;100.00
4767;BME280;2397;53.576;9.746;2023-12-04T06:34:13;101493.91;;;-1.06;100.00
4767;BME280;2397;53.576;9.746;2023-12-04T06:36:40;101492.06;;;-1.04;100.00
4767;BME280;2397;53.576;9.746;2023-12-04T06:39:10;101492.19;;;-1.07;100.00
4767;BME280;2397;53.576;9.746;2023-12-04T06:41:42;101498.69;;;-0.97;100.00
4767;BME280;2397;53.576;9.746;2023-12-04T06:44:09;101491.84;;;-0.98;100.00
4767;BME280;2397;53.576;9.746;2023-12-04T06:46:37;101491.72;;;-0.95;100.00
4767;BME280;2397;53.576;9.746;2023-12-04T06:49:05;101486.78;;;-1.01;100.00
4767;BME280;2397;53.576;9.746;2023-12-04T06:51:33;101485.63;;;-0.94;100.00
4767;BME280;2397;53.576;9.746;2023-12-04T06:53:59;101485.81;;;-0.99;100.00
4767;BME280;2397;53.576;9.746;2023-12-04T06:56:26;101495.78;;;-0.88;100.00
4767;BME280;2397;53.576;9.746;2023-12-04T06:58:54;101495.81;;;-0.90;100.00
4767;BME280;2397;53.576;9.746;2023-12-04T07:01:20;101495.03;;;-0.92;100.00
4767;BME280;2397;53.576;9.746;2023-12-04T07:03:48;101500.94;;;-0.88;100.00
4767;BME280;2397;53.576;9.746;2023-12-04T07:06:15;101494.72;;;-1.06;100.00
4767;BME280;2397;53.576;9.746;2023-12-04T07:08:41;101485.38;;;-1.10;100.00
4767;BME280;2397;53.576;9.746;2023-12-04T07:11:08;101483.75;;;-1.12;100.00
4767;BME280;2397;53.576;9.746;2023-12-04T07:13:35;101482.91;;;-1.13;100.00
4767;BME280;2397;53.576;9.746;2023-12-04T07:16:01;101483.66;;;-1.09;100.00
4767;BME280;2397;53.576;9.746;2023-12-04T07:18:29;101482.19;;;-1.16;100.00
4767;BME280;2397;53.576;9.746;2023-12-04T07:20:55;101483.94;;;-1.17;100.00
4767;BME280;2397;53.576;9.746;2023-12-04T07:23:22;101483.44;;;-1.26;100.00
4767;BME280;2397;53.576;9.746;2023-12-04T07:25:53;101487.50;;;-1.19;100.00
4767;BME280;2397;53.576;9.746;2023-12-04T07:28:19;101480.53;;;-1.17;100.00
4767;BME280;2397;53.576;9.746;2023-12-04T07:30:46;101479.72;;;-1.19;100.00
4767;BME280;2397;53.576;9.746;2023-12-04T07:33:13;101479.78;;;-1.21;100.00
4767;BME280;2397;53.576;9.746;2023-12-04T07:35:40;101478.22;;;-1.25;100.00
4767;BME280;2397;53.576;9.746;2023-12-04T07:38:07;101480.63;;;-1.20;100.00
4767;BME280;2397;53.576;9.746;2023-12-04T07:40:34;101479.88;;;-1.24;100.00
4767;BME280;2397;53.576;9.746;2023-12-04T07:43:00;101476.22;;;-1.18;100.00
4767;BME280;2397;53.576;9.746;2023-12-04T07:45:27;101486.78;;;-1.23;100.00
4767;BME280;2397;53.576;9.746;2023-12-04T07:47:54;101484.06;;;-1.20;100.00
4767;BME280;2397;53.576;9.746;2023-12-04T07:50:20;101479.50;;;-1.13;100.00
4767;BME280;2397;53.576;9.746;2023-12-04T07:52:47;101485.69;;;-1.17;100.00
4767;BME280;2397;53.576;9.746;2023-12-04T07:55:13;101481.28;;;-1.15;100.00
4767;BME280;2397;53.576;9.746;2023-12-04T07:57:40;101485.44;;;-1.11;100.00
4767;BME280;2397;53.576;9.746;2023-12-04T08:00:07;101474.84;;;-1.05;100.00
4767;BME280;2397;53.576;9.746;2023-12-04T08:02:34;101472.25;;;-1.05;100.00
4767;BME280;2397;53.576;9.746;2023-12-04T08:05:01;101469.91;;;-1.11;100.00
4767;BME280;2397;53.576;9.746;2023-12-04T08:07:27;101474.63;;;-0.99;100.00
4767;BME280;2397;53.576;9.746;2023-12-04T08:09:54;101470.22;;;-0.97;100.00
4767;BME280;2397;53.576;9.746;2023-12-04T08:12:21;101465.19;;;-1.02;100.00
4767;BME280;2397;53.576;9.746;2023-12-04T08:14:47;101469.44;;;-0.99;100.00
4767;BME280;2397;53.576;9.746;2023-12-04T08:17:14;101457.63;;;-1.06;100.00
4767;BME280;2397;53.576;9.746;2023-12-04T08:19:40;101461.00;;;-1.04;100.00
4767;BME280;2397;53.576;9.746;2023-12-04T08:22:08;101458.75;;;-0.92;100.00
4767;BME280;2397;53.576;9.746;2023-12-04T08:24:34;101453.63;;;-0.93;100.00
4767;BME280;2397;53.576;9.746;2023-12-04T08:27:01;101447.47;;;-0.91;100.00
4767;BME280;2397;53.576;9.746;2023-12-04T08:29:28;101452.50;;;-0.86;100.00
4767;BME280;2397;53.576;9.746;2023-12-04T08:31:54;101445.63;;;-0.87;100.00
4767;BME280;2397;53.576;9.746;2023-12-04T08:34:21;101444.13;;;-0.93;100.00
4767;BME280;2397;53.576;9.746;2023-12-04T08:36:47;101438.81;;;-0.90;100.00
4767;BME280;2397;53.576;9.746;2023-12-04T08:39:14;101436.03;;;-0.85;100.00
4767;BME280;2397;53.576;9.746;2023-12-04T08:41:45;101440.44;;;-0.87;100.00
4767;BME280;2397;53.576;9.746;2023-12-04T08:44:23;101432.56;;;-0.84;100.00
4767;BME280;2397;53.576;9.746;2023-12-04T08:46:50;101446.03;;;-0.76;100.00
4767;BME280;2397;53.576;9.746;2023-12-04T08:49:17;101446.38;;;-0.85;100.00
4767;BME280;2397;53.576;9.746;2023-12-04T08:51:43;101441.22;;;-0.85;100.00
4767;BME280;2397;53.576;9.746;2023-12-04T08:54:10;101443.31;;;-0.73;100.00
4767;BME280;2397;53.576;9.746;2023-12-04T08:56:39;101443.91;;;-0.67;100.00
4767;BME280;2397;53.576;9.746;2023-12-04T08:59:06;101445.00;;;-0.72;100.00
4767;BME280;2397;53.576;9.746;2023-12-04T09:01:32;101447.19;;;-0.63;100.00
4767;BME280;2397;53.576;9.746;2023-12-04T09:03:59;101439.38;;;-0.62;100.00
4767;BME280;2397;53.576;9.746;2023-12-04T09:06:26;101436.19;;;-0.68;100.00
4767;BME280;2397;53.576;9.746;2023-12-04T09:08:56;101441.13;;;-0.62;100.00
4767;BME280;2397;53.576;9.746;2023-12-04T09:11:33;101439.88;;;-0.54;100.00
4767;BME280;2397;53.576;9.746;2023-12-04T09:13:59;101432.84;;;-0.50;100.00
4767;BME280;2397;53.576;9.746;2023-12-04T09:16:26;101437.84;;;-0.46;100.00
4767;BME280;2397;53.576;9.746;2023-12-04T09:18:52;101436.66;;;-0.39;100.00
4767;BME280;2397;53.576;9.746;2023-12-04T09:21:20;101439.44;;;-0.43;100.00
4767;BME280;2397;53.576;9.746;2023-12-04T09:23:46;101434.91;;;-0.38;100.00
4767;BME280;2397;53.576;9.746;2023-12-04T09:26:16;101433.97;;;-0.37;100.00
4767;BME280;2397;53.576;9.746;2023-12-04T09:28:43;101434.84;;;-0.37;100.00
4767;BME280;2397;53.576;9.746;2023-12-04T09:31:10;101430.94;;;-0.27;100.00
4767;BME280;2397;53.576;9.746;2023-12-04T09:33:37;101435.94;;;-0.22;100.00
4767;BME280;2397;53.576;9.746;2023-12-04T09:36:04;101434.19;;;-0.22;100.00
4767;BME280;2397;53.576;9.746;2023-12-04T09:38:30;101423.69;;;-0.19;100.00
4767;BME280;2397;53.576;9.746;2023-12-04T09:40:59;101431.53;;;-0.20;100.00
4767;BME280;2397;53.576;9.746;2023-12-04T09:43:31;101435.97;;;-0.04;100.00
4767;BME280;2397;53.576;9.746;2023-12-04T09:45:59;101439.84;;;0.07;100.00
4767;BME280;2397;53.576;9.746;2023-12-04T09:48:26;101437.03;;;0.11;100.00
4767;BME280;2397;53.576;9.746;2023-12-04T09:50:53;101432.56;;;0.15;100.00
4767;BME280;2397;53.576;9.746;2023-12-04T09:53:24;101431.75;;;0.33;100.00
4767;BME280;2397;53.576;9.746;2023-12-04T09:55:51;101420.63;;;0.29;100.00
4767;BME280;2397;53.576;9.746;2023-12-04T09:58:19;101414.66;;;0.46;100.00
4767;BME280;2397;53.576;9.746;2023-12-04T10:00:46;101415.09;;;0.55;100.00
4767;BME280;2397;53.576;9.746;2023-12-04T10:03:14;101411.34;;;0.61;100.00
4767;BME280;2397;53.576;9.746;2023-12-04T10:05:43;101405.63;;;0.54;100.00
4767;BME280;2397;53.576;9.746;2023-12-04T10:08:10;101408.94;;;0.58;100.00
4767;BME280;2397;53.576;9.746;2023-12-04T10:10:37;101405.34;;;0.60;100.00
4767;BME280;2397;53.576;9.746;2023-12-04T10:13:03;101404.63;;;0.57;100.00
4767;BME280;2397;53.576;9.746;2023-12-04T10:15:30;101399.22;;;0.61;100.00
4767;BME280;2397;53.576;9.746;2023-12-04T10:17:56;101386.53;;;0.55;100.00
4767;BME280;2397;53.576;9.746;2023-12-04T10:20:24;101386.09;;;0.46;100.00
4767;BME280;2397;53.576;9.746;2023-12-04T10:22:56;101377.13;;;0.53;100.00
4767;BME280;2397;53.576;9.746;2023-12-04T10:25:24;101384.84;;;0.54;100.00
4767;BME280;2397;53.576;9.746;2023-12-04T10:27:53;101381.19;;;0.58;100.00
4767;BME280;2397;53.576;9.746;2023-12-04T10:30:28;101377.53;;;0.62;100.00
4767;BME280;2397;53.576;9.746;2023-12-04T10:32:59;101378.44;;;0.61;100.00
4767;BME280;2397;53.576;9.746;2023-12-04T10:35:35;101382.09;;;0.57;100.00
4767;BME280;2397;53.576;9.746;2023-12-04T10:38:06;101364.78;;;0.58;100.00
4767;BME280;2397;53.576;9.746;2023-12-04T10:40:36;101364.34;;;0.67;100.00
4767;BME280;2397;53.576;9.746;2023-12-04T10:45:40;101360.19;;;0.63;100.00
4767;BME280;2397;53.576;9.746;2023-12-04T10:48:08;101355.34;;;0.55;100.00
4767;BME280;2397;53.576;9.746;2023-12-04T10:50:37;101357.19;;;0.53;100.00
4767;BME280;2397;53.576;9.746;2023-12-04T10:53:08;101360.06;;;0.47;100.00
4767;BME280;2397;53.576;9.746;2023-12-04T10:55:36;101350.41;;;0.51;100.00
4767;BME280;2397;53.576;9.746;2023-12-04T10:58:09;101350.66;;;0.63;100.00
4767;BME280;2397;53.576;9.746;2023-12-04T11:00:40;101344.34;;;0.69;100.00
4767;BME280;2397;53.576;9.746;2023-12-04T11:03:08;101346.00;;;0.70;100.00
4767;BME280;2397;53.576;9.746;2023-12-04T11:05:38;101347.59;;;0.72;100.00
4767;BME280;2397;53.576;9.746;2023-12-04T11:08:07;101341.50;;;0.73;100.00
4767;BME280;2397;53.576;9.746;2023-12-04T11:10:52;101334.78;;;0.86;100.00
4767;BME280;2397;53.576;9.746;2023-12-04T11:13:22;101333.13;;;0.85;100.00
4767;BME280;2397;53.576;9.746;2023-12-04T11:15:52;101326.16;;;0.86;100.00
4767;BME280;2397;53.576;9.746;2023-12-04T11:18:22;101329.13;;;0.95;100.00
4767;BME280;2397;53.576;9.746;2023-12-04T11:21:02;101323.78;;;0.98;100.00
4767;BME280;2397;53.576;9.746;2023-12-04T11:23:31;101323.25;;;0.92;100.00
4767;BME280;2397;53.576;9.746;2023-12-04T11:25:58;101320.59;;;0.93;100.00
4767;BME280;2397;53.576;9.746;2023-12-04T11:28:27;101312.47;;;0.82;100.00
4767;BME280;2397;53.576;9.746;2023-12-04T11:30:55;101315.81;;;0.84;100.00
4767;BME280;2397;53.576;9.746;2023-12-04T11:33:23;101312.84;;;0.92;100.00
4767;BME280;2397;53.576;9.746;2023-12-04T11:35:50;101311.19;;;0.91;100.00
4767;BME280;2397;53.576;9.746;2023-12-04T11:38:17;101308.81;;;0.86;100.00
4767;BME280;2397;53.576;9.746;2023-12-04T11:40:46;101307.03;;;0.87;100.00
4767;BME280;2397;53.576;9.746;2023-12-04T11:43:26;101298.88;;;0.94;100.00
4767;BME280;2397;53.576;9.746;2023-12-04T11:46:07;101293.97;;;1.05;100.00
4767;BME280;2397;53.576;9.746;2023-12-04T11:48:38;101294.13;;;1.02;100.00
4767;BME280;2397;53.576;9.746;2023-12-04T11:51:07;101291.53;;;1.02;100.00
4767;BME280;2397;53.576;9.746;2023-12-04T11:53:40;101292.53;;;1.00;100.00
4767;BME280;2397;53.576;9.746;2023-12-04T11:56:13;101283.72;;;1.02;99.98
4767;BME280;2397;53.576;9.746;2023-12-04T11:58:43;101282.72;;;1.05;100.00
4767;BME280;2397;53.576;9.746;2023-12-04T12:01:11;101280.13;;;1.05;100.00
4767;BME280;2397;53.576;9.746;2023-12-04T12:03:37;101267.47;;;0.99;100.00
4767;BME280;2397;53.576;9.746;2023-12-04T12:06:04;101258.88;;;0.97;100.00
4767;BME280;2397;53.576;9.746;2023-12-04T12:08:32;101260.81;;;0.93;100.00
4767;BME280;2397;53.576;9.746;2023-12-04T12:10:58;101257.84;;;0.84;100.00
4767;BME280;2397;53.576;9.746;2023-12-04T12:13:25;101258.06;;;0.79;100.00
4767;BME280;2397;53.576;9.746;2023-12-04T12:15:53;101249.34;;;0.80;100.00
4767;BME280;2397;53.576;9.746;2023-12-04T12:18:21;101247.28;;;0.87;100.00
4767;BME280;2397;53.576;9.746;2023-12-04T12:20:48;101245.06;;;0.79;100.00
4767;BME280;2397;53.576;9.746;2023-12-04T12:23:14;101242.94;;;0.87;100.00
4767;BME280;2397;53.576;9.746;2023-12-04T12:25:41;101242.78;;;0.90;100.00
4767;BME280;2397;53.576;9.746;2023-12-04T12:28:09;101242.00;;;0.88;100.00
4767;BME280;2397;53.576;9.746;2023-12-04T12:30:36;101235.22;;;0.86;100.00
4767;BME280;2397;53.576;9.746;2023-12-04T12:33:03;101241.88;;;0.74;100.00
4767;BME280;2397;53.576;9.746;2023-12-04T12:35:30;101232.25;;;0.76;100.00
4767;BME280;2397;53.576;9.746;2023-12-04T12:37:57;101230.88;;;0.86;100.00
4767;BME280;2397;53.576;9.746;2023-12-04T12:40:27;101222.00;;;0.90;100.00
4767;BME280;2397;53.576;9.746;2023-12-04T12:43:03;101216.66;;;0.76;100.00
4767;BME280;2397;53.576;9.746;2023-12-04T12:45:43;101210.22;;;0.83;100.00
4767;BME280;2397;53.576;9.746;2023-12-04T12:48:13;101205.34;;;0.77;100.00
4767;BME280;2397;53.576;9.746;2023-12-04T12:50:42;101200.16;;;0.60;100.00
4767;BME280;2397;53.576;9.746;2023-12-04T12:53:12;101199.31;;;0.77;100.00
4767;BME280;2397;53.576;9.746;2023-12-04T12:55:42;101192.41;;;0.76;100.00
4767;BME280;2397;53.576;9.746;2023-12-04T12:58:10;101183.03;;;0.73;100.00
4767;BME280;2397;53.576;9.746;2023-12-04T13:00:39;101191.75;;;0.72;100.00
4767;BME280;2397;53.576;9.746;2023-12-04T13:03:13;101190.81;;;0.73;100.00
4767;BME280;2397;53.576;9.746;2023-12-04T13:05:41;101185.63;;;0.73;100.00
4767;BME280;2397;53.576;9.746;2023-12-04T13:08:07;101190.09;;;0.71;100.00